Time;durP1;ratioP1;P1;durP2;ratioP2;P2;SDS_P1;SDS_P2;PMS_P1;PMS_P2;Temp;Humidity;BMP_temperature;BMP_pressure;BME280_temperature;BME280_humidity;BME280_pressure;Samples;Min_cycle;Max_cycle;Signal;HPM_P1;HPM_P2
2021/07/11 00:03:19;;;;;;;;;;;17.30;99.90;;;16.39;99.77;95737.19;10493786;28;2403;-81
2021/07/11 00:08:21;;;;;;;;;;;17.30;99.90;;;16.30;100.00;95754.56;10490687;28;2363;-80
2021/07/11 00:13:24;;;;;;;;;;;17.30;99.90;;;16.21;100.00;95763.41;10470993;28;2540;-80
2021/07/11 00:18:27;;;;;;;;;;;17.20;99.90;;;16.26;100.00;95769.81;10487033;28;2478;-79
2021/07/11 00:23:30;;;;;;;;;;;17.20;99.90;;;16.05;100.00;95773.03;10486168;28;2487;-81
2021/07/11 00:28:32;;;;;;;;;;;17.10;99.90;;;15.75;97.29;95779.19;10502644;28;2340;-82
2021/07/11 00:33:35;;;;;;;;;;;16.90;99.90;;;15.48;99.93;95796.28;10521932;28;2120;-81
2021/07/11 00:38:38;;;;;;;;;;;16.60;99.90;;;15.24;100.00;95799.22;10535164;28;2265;-80
2021/07/11 00:43:41;;;;;;;;;;;16.30;99.90;;;15.09;100.00;95808.47;10539778;28;2075;-79
2021/07/11 00:48:43;;;;;;;;;;;16.10;99.90;;;15.04;100.00;95795.03;10536844;28;1940;-82
2021/07/11 00:53:46;;;;;;;;;;;16.10;99.90;;;15.01;100.00;95799.13;10507978;28;2237;-81
2021/07/11 00:58:49;;;;;;;;;;;16.00;99.90;;;14.91;100.00;95796.63;10508527;28;2113;-81
2021/07/11 01:03:51;;;;;;;;;;;16.00;99.90;;;14.82;100.00;95801.94;10483515;28;2722;-81
2021/07/11 01:08:54;;;;;;;;;;;15.90;99.90;;;14.74;100.00;95813.44;10505651;28;2388;-82
2021/07/11 01:13:57;;;;;;;;;;;15.80;99.90;;;14.76;100.00;95811.25;10497975;28;2325;-80
2021/07/11 01:19:00;;;;;;;;;;;15.80;99.90;;;14.66;100.00;95807.91;10489732;28;2678;-81
2021/07/11 01:24:02;;;;;;;;;;;15.70;99.90;;;14.63;100.00;95812.00;10495719;28;2426;-82
2021/07/11 01:29:05;;;;;;;;;;;15.60;99.90;;;14.66;100.00;95816.03;10479716;28;2431;-81
2021/07/11 01:34:08;;;;;;;;;;;15.70;99.90;;;14.62;100.00;95805.00;10524598;28;2471;-82
2021/07/11 01:39:11;;;;;;;;;;;15.70;99.90;;;14.68;100.00;95809.22;10526853;28;1987;-81
2021/07/11 01:44:13;;;;;;;;;;;15.70;99.90;;;14.65;100.00;95812.53;10509917;28;2191;-80
2021/07/11 01:49:16;;;;;;;;;;;15.70;99.90;;;14.68;100.00;95808.41;10498661;28;2338;-80
2021/07/11 01:54:19;;;;;;;;;;;15.70;99.90;;;14.64;100.00;95802.00;10512956;28;2349;-81
2021/07/11 01:59:21;;;;;;;;;;;15.70;99.90;;;14.61;100.00;95797.97;10531641;28;2130;-82
2021/07/11 02:04:24;;;;;;;;;;;15.60;99.90;;;14.60;100.00;95805.31;10482980;28;2350;-80
2021/07/11 02:09:27;;;;;;;;;;;15.60;99.90;;;14.61;100.00;95814.22;10489325;28;2316;-79
2021/07/11 02:14:29;;;;;;;;;;;15.60;99.90;;;14.55;100.00;95816.22;10505562;28;2356;-81
2021/07/11 02:19:32;;;;;;;;;;;15.60;99.90;;;14.46;100.00;95806.34;10498730;28;2305;-81
2021/07/11 02:24:35;;;;;;;;;;;15.50;99.90;;;14.41;100.00;95819.97;10488242;28;2393;-81
2021/07/11 02:29:39;;;;;;;;;;;15.40;99.90;;;14.38;100.00;95815.97;10520050;28;2365;-81
2021/07/11 02:34:42;;;;;;;;;;;15.40;99.90;;;14.38;100.00;95813.25;10510440;28;2317;-79
2021/07/11 02:39:45;;;;;;;;;;;15.40;99.90;;;14.36;100.00;95823.53;10481739;28;2305;-81
2021/07/11 02:44:47;;;;;;;;;;;15.40;99.90;;;14.36;100.00;95826.25;10491847;28;2354;-80
2021/07/11 02:49:50;;;;;;;;;;;15.40;99.90;;;14.35;100.00;95827.34;10478487;28;2431;-79
2021/07/11 02:54:53;;;;;;;;;;;15.40;99.90;;;14.42;100.00;95826.97;10499321;28;2320;-82
2021/07/11 02:59:56;;;;;;;;;;;15.40;99.90;;;14.40;100.00;95829.97;10501089;28;2262;-80
2021/07/11 03:04:58;;;;;;;;;;;15.40;99.90;;;14.33;100.00;95821.44;10485293;28;2364;-81
2021/07/11 03:10:01;;;;;;;;;;;15.40;99.90;;;14.27;100.00;95817.22;10486302;28;2360;-81
2021/07/11 03:15:04;;;;;;;;;;;15.30;99.90;;;14.09;100.00;95823.44;10486548;28;2332;-82
2021/07/11 03:20:06;;;;;;;;;;;15.20;99.90;;;14.07;100.00;95815.66;10502025;28;2251;-82
2021/07/11 03:25:09;;;;;;;;;;;15.10;99.90;;;13.91;100.00;95806.97;10490865;28;2323;-81
2021/07/11 03:30:12;;;;;;;;;;;15.00;99.90;;;13.85;100.00;95818.94;10510919;28;2262;-81
2021/07/11 03:35:15;;;;;;;;;;;14.90;99.90;;;13.71;100.00;95824.28;10509598;28;2262;-81
2021/07/11 03:40:17;;;;;;;;;;;14.90;99.90;;;13.62;100.00;95819.84;10515663;28;2351;-80
2021/07/11 03:45:20;;;;;;;;;;;14.70;99.90;;;13.51;100.00;95819.16;10512378;28;2371;-79
2021/07/11 03:50:23;;;;;;;;;;;14.50;99.90;;;13.46;100.00;95811.91;10501162;28;2305;-82
2021/07/11 03:55:25;;;;;;;;;;;14.50;99.90;;;13.44;100.00;95811.41;10490424;28;2293;-80
2021/07/11 04:00:28;;;;;;;;;;;14.40;99.90;;;13.46;100.00;95817.31;10465643;28;2269;-80
2021/07/11 04:05:31;;;;;;;;;;;14.40;99.90;;;13.39;100.00;95827.69;10473934;28;2329;-81
2021/07/11 04:10:34;;;;;;;;;;;14.40;99.90;;;13.41;100.00;95827.38;10522288;28;2278;-79
2021/07/11 04:15:36;;;;;;;;;;;14.40;99.90;;;13.43;100.00;95823.31;10494389;28;2405;-81
2021/07/11 04:20:59;;;;;;;;;;;14.40;99.90;;;13.46;100.00;95811.13;10505660;28;2284;-82
2021/07/11 04:26:22;;;;;;;;;;;14.40;99.90;;;13.52;100.00;95805.34;10494501;28;2262;-81
2021/07/11 04:31:45;;;;;;;;;;;14.40;99.90;;;13.56;100.00;95802.09;10497459;28;2230;-80
2021/07/11 04:37:07;;;;;;;;;;;14.50;99.90;;;13.57;100.00;95796.38;10509976;28;2274;-80
2021/07/11 04:42:30;;;;;;;;;;;14.50;99.90;;;13.62;100.00;95803.63;10512376;28;2225;-81
2021/07/11 04:47:33;;;;;;;;;;;14.50;99.90;;;13.68;100.00;95797.84;10520845;28;2300;-82
2021/07/11 04:52:55;;;;;;;;;;;14.60;99.90;;;13.76;100.00;95807.19;10485240;28;2297;-82
2021/07/11 04:58:18;;;;;;;;;;;14.70;99.90;;;13.78;100.00;95815.81;10503084;28;2250;-81
2021/07/11 05:03:41;;;;;;;;;;;14.70;99.90;;;13.79;100.00;95815.50;10489976;28;2336;-81
2021/07/11 05:08:43;;;;;;;;;;;14.70;99.90;;;13.81;100.00;95817.13;10504728;28;2124;-79
2021/07/11 05:14:06;;;;;;;;;;;14.70;99.90;;;13.81;100.00;95820.63;10503993;28;2215;-81
2021/07/11 05:19:29;;;;;;;;;;;14.70;99.90;;;13.86;100.00;95820.53;10491077;28;2332;-80
2021/07/11 05:24:51;;;;;;;;;;;14.80;99.90;;;13.83;100.00;95821.13;10512095;28;2043;-81
2021/07/11 05:30:14;;;;;;;;;;;14.80;99.90;;;13.88;100.00;95818.38;10514780;28;2301;-82
2021/07/11 05:35:36;;;;;;;;;;;14.80;99.90;;;13.95;100.00;95807.19;10488906;28;2272;-82
2021/07/11 05:40:59;;;;;;;;;;;14.80;99.90;;;14.06;100.00;95814.84;10494605;28;2289;-80
2021/07/11 05:46:20;;;;;;;;;;;14.90;99.90;;;14.18;100.00;95814.38;10528021;28;2510;-83
2021/07/11 05:51:42;;;;;;;;;;;15.00;99.90;;;14.34;100.00;95809.53;10499965;28;2274;-81
2021/07/11 05:57:04;;;;;;;;;;;15.10;99.90;;;14.38;100.00;95815.13;10490344;28;2273;-81
2021/07/11 06:02:30;;;;;;;;;;;15.20;99.90;;;14.52;100.00;95816.81;10481147;28;2318;-79
2021/07/11 06:07:52;;;;;;;;;;;15.30;99.90;;;14.67;100.00;95820.34;10498320;28;2348;-81
2021/07/11 06:13:14;;;;;;;;;;;15.40;99.90;;;14.84;100.00;95817.88;10495169;28;2280;-80
2021/07/11 06:18:17;;;;;;;;;;;15.60;99.90;;;14.90;100.00;95822.09;10509787;28;2324;-77
2021/07/11 06:23:39;;;;;;;;;;;15.80;99.90;;;15.02;100.00;95827.81;10507785;28;2309;-79
2021/07/11 06:29:02;;;;;;;;;;;15.90;99.90;;;15.09;100.00;95830.91;10515163;28;2297;-82
2021/07/11 06:34:24;;;;;;;;;;;15.90;99.90;;;15.08;100.00;95845.56;10522242;28;2245;-81
2021/07/11 06:39:47;;;;;;;;;;;16.00;99.90;;;15.06;100.00;95842.34;10510276;28;2293;-81
2021/07/11 06:45:10;;;;;;;;;;;16.00;99.90;;;15.04;100.00;95849.97;10502625;28;2150;-82
2021/07/11 06:50:32;;;;;;;;;;;16.00;99.90;;;15.12;100.00;95862.78;10502349;28;2329;-82
2021/07/11 06:55:54;;;;;;;;;;;16.00;99.90;;;15.19;100.00;95865.09;10504736;28;2237;-80
2021/07/11 07:01:15;;;;;;;;;;;16.00;99.90;;;15.24;100.00;95869.63;10499520;28;2235;-81
2021/07/11 07:06:30;;;;;;;;;;;16.10;99.90;;;15.47;100.00;95868.63;10496165;28;2441;-82
2021/07/11 07:11:52;;;;;;;;;;;16.20;99.90;;;15.57;100.00;95868.41;10504531;28;2500;-79
2021/07/11 07:17:15;;;;;;;;;;;16.40;99.90;;;15.75;99.91;95874.03;10520928;28;2305;-80
2021/07/11 07:22:38;;;;;;;;;;;16.60;99.90;;;15.84;100.00;95873.03;10489076;28;2258;-80
2021/07/11 07:28:01;;;;;;;;;;;16.70;99.90;;;15.90;98.81;95869.09;10488509;28;2353;-82
2021/07/11 07:33:23;;;;;;;;;;;16.70;99.90;;;15.75;100.00;95872.13;10492619;28;2293;-81
2021/07/11 07:38:46;;;;;;;;;;;16.70;99.90;;;15.60;100.00;95884.06;10505408;28;2341;-80
2021/07/11 07:43:48;;;;;;;;;;;16.60;99.90;;;15.34;100.00;95882.97;10528586;28;2335;-79
2021/07/11 07:49:11;;;;;;;;;;;16.40;99.90;;;15.23;100.00;95886.97;10514571;28;2322;-79
2021/07/11 07:54:14;;;;;;;;;;;16.30;99.90;;;15.35;100.00;95887.28;10504580;28;2444;-80
2021/07/11 07:59:16;;;;;;;;;;;16.20;99.90;;;15.21;100.00;95894.59;10514149;28;3242;-80
2021/07/11 08:04:20;;;;;;;;;;;16.20;99.90;;;15.11;100.00;95904.50;10504188;28;2770;-81
2021/07/11 08:09:23;;;;;;;;;;;16.00;99.90;;;15.17;100.00;95897.09;10483585;28;1991;-81
2021/07/11 08:14:26;;;;;;;;;;;16.00;99.90;;;15.22;100.00;95904.34;10512256;28;2364;-82
2021/07/11 08:19:28;;;;;;;;;;;16.00;99.90;;;15.21;100.00;95902.72;10517671;28;2357;-82
2021/07/11 08:24:31;;;;;;;;;;;16.00;99.90;;;15.22;100.00;95907.03;10521164;28;1970;-81
2021/07/11 08:29:34;;;;;;;;;;;16.00;99.90;;;15.35;100.00;95906.25;10519129;28;2253;-78
2021/07/11 08:34:36;;;;;;;;;;;16.10;99.90;;;15.50;100.00;95903.22;10521905;28;2368;-80
2021/07/11 08:39:39;;;;;;;;;;;16.20;99.90;;;15.97;100.00;95903.94;10507033;28;2253;-81
2021/07/11 08:44:42;;;;;;;;;;;16.40;99.90;;;16.00;100.00;95897.09;10536946;28;2594;-81
2021/07/11 08:49:44;;;;;;;;;;;16.60;99.90;;;16.37;98.85;95906.81;10503320;28;2031;-81
2021/07/11 08:54:47;;;;;;;;;;;16.70;99.90;;;16.61;93.70;95901.91;10519386;28;2681;-81
2021/07/11 08:59:50;;;;;;;;;;;17.10;99.90;;;17.07;94.93;95899.97;10512729;28;2231;-82
2021/07/11 09:04:53;;;;;;;;;;;17.40;99.90;;;17.62;93.68;95899.53;10488086;28;2011;-80
2021/07/11 09:09:56;;;;;;;;;;;17.80;99.90;;;17.71;89.43;95903.94;10484647;28;2289;-80
2021/07/11 09:14:59;;;;;;;;;;;18.10;99.90;;;18.04;86.06;95908.97;10501325;28;2273;-81
2021/07/11 09:20:02;;;;;;;;;;;18.40;99.90;;;18.18;83.59;95903.38;10462871;28;2357;-80
2021/07/11 09:25:05;;;;;;;;;;;18.70;99.90;;;18.87;78.27;95909.63;10495945;28;2884;-81
2021/07/11 09:30:08;;;;;;;;;;;19.20;99.90;;;18.88;79.24;95905.78;10490632;28;2039;-79
2021/07/11 09:35:15;;;;;;;;;;;19.50;99.90;;;20.69;74.27;95899.75;10478361;28;2014;-82
2021/07/11 09:40:18;;;;;;;;;;;20.40;99.90;;;20.01;72.69;95899.13;10499898;28;2423;-80
2021/07/11 09:45:20;;;;;;;;;;;20.80;99.90;;;20.13;68.04;95899.19;10480961;28;2209;-81
2021/07/11 09:50:23;;;;;;;;;;;20.80;99.90;;;20.01;73.67;95901.84;10489082;28;2321;-80
2021/07/11 09:55:26;;;;;;;;;;;20.60;99.90;;;20.19;70.45;95911.53;10504420;28;2235;-82
2021/07/11 10:00:29;;;;;;;;;;;20.90;99.90;;;19.34;69.97;95912.41;10501176;28;2259;-81
2021/07/11 10:05:31;;;;;;;;;;;20.50;99.90;;;19.95;71.42;95904.75;10490373;28;2349;-79
2021/07/11 10:10:34;;;;;;;;;;;20.40;99.90;;;20.45;66.96;95892.25;10495078;28;2317;-79
2021/07/11 10:15:37;;;;;;;;;;;20.80;99.90;;;19.66;70.56;95897.41;10506228;28;2309;-81
2021/07/11 10:20:39;;;;;;;;;;;20.70;99.90;;;19.65;70.75;95905.88;10508461;28;2337;-82
2021/07/11 10:25:42;;;;;;;;;;;20.30;99.90;;;19.59;69.74;95901.75;10500300;28;2276;-82
2021/07/11 10:30:45;;;;;;;;;;;20.30;99.90;;;19.38;68.09;95897.00;10511262;28;2348;-82
2021/07/11 10:35:47;;;;;;;;;;;20.40;99.90;;;19.30;71.88;95895.09;10524541;28;2028;-80
2021/07/11 10:40:50;;;;;;;;;;;20.30;99.90;;;18.45;76.84;95896.81;10537492;28;2125;-80
2021/07/11 10:45:54;;;;;;;;;;;19.90;99.90;;;18.44;76.63;95895.22;10521281;28;1105;-81
2021/07/11 10:50:56;;;;;;;;;;;19.50;99.90;;;18.25;79.03;95909.94;10537856;28;1351;-82
2021/07/11 10:55:59;;;;;;;;;;;19.30;99.90;;;19.12;72.40;95899.00;10533164;28;1983;-80
2021/07/11 11:01:02;;;;;;;;;;;19.50;99.90;;;19.05;71.57;95893.25;10525409;28;1963;-80
2021/07/11 11:06:05;;;;;;;;;;;20.00;99.90;;;19.32;71.65;95892.84;10518199;28;1860;-80
2021/07/11 11:11:08;;;;;;;;;;;20.60;99.90;;;20.41;67.47;95878.41;10514534;28;2346;-82
2021/07/11 11:16:11;;;;;;;;;;;21.90;99.90;;;21.27;63.59;95879.53;10521117;28;2314;-80
2021/07/11 11:21:14;;;;;;;;;;;22.60;99.90;;;21.05;61.52;95878.00;10514961;28;2325;-80
2021/07/11 11:26:17;;;;;;;;;;;23.10;99.90;;;21.52;61.08;95874.13;10522770;28;2273;-81
2021/07/11 11:31:20;;;;;;;;;;;23.20;99.90;;;21.34;62.44;95864.56;10516927;28;2178;-80
2021/07/11 11:36:22;;;;;;;;;;;22.60;99.90;;;21.03;64.30;95871.28;10495869;28;1977;-81
2021/07/11 11:41:26;;;;;;;;;;;22.00;99.90;;;21.47;60.57;95869.69;10479067;28;2506;-80
2021/07/11 11:46:28;;;;;;;;;;;22.20;99.90;;;21.17;62.02;95873.72;10504910;28;2265;-78
2021/07/11 11:51:32;;;;;;;;;;;22.00;99.90;;;20.59;63.75;95860.00;10486120;28;2291;-81
2021/07/11 11:56:35;;;;;;;;;;;21.80;99.90;;;20.66;63.36;95865.72;10473745;28;2225;-80
2021/07/11 12:01:38;;;;;;;;;;;21.50;99.90;;;21.16;60.79;95866.66;10485183;28;2356;-80
2021/07/11 12:06:41;;;;;;;;;;;21.70;99.90;;;22.94;57.51;95858.44;10469312;28;2400;-81
2021/07/11 12:11:44;;;;;;;;;;;22.80;99.90;;;24.12;51.80;95839.41;10494289;28;2316;-80
2021/07/11 12:16:46;;;;;;;;;;;24.00;99.90;;;23.69;53.37;95843.91;10487294;28;2414;-81
2021/07/11 12:21:49;;;;;;;;;;;24.30;99.90;;;23.26;52.89;95833.81;10483458;28;2359;-81
2021/07/11 12:26:53;;;;;;;;;;;24.10;99.90;;;22.64;51.93;95825.91;10503023;28;2329;-81
2021/07/11 12:31:56;;;;;;;;;;;23.80;99.90;;;20.89;59.30;95841.53;10500324;28;2332;-79
2021/07/11 12:36:59;;;;;;;;;;;22.60;99.90;;;20.15;61.49;95853.25;10477288;28;2298;-81
2021/07/11 12:42:07;;;;;;;;;;;21.80;99.90;;;20.30;62.62;95852.69;10496951;28;2352;-79
2021/07/11 12:47:10;;;;;;;;;;;21.30;99.90;;;19.68;67.67;95858.88;10497687;28;2341;-79
2021/07/11 12:52:15;;;;;;;;;;;20.90;99.90;;;19.13;69.22;95870.63;10497186;28;2351;-81
2021/07/11 12:57:17;;;;;;;;;;;20.50;99.90;;;18.95;82.32;95871.81;10492473;28;2355;-80
2021/07/11 13:02:20;;;;;;;;;;;20.20;99.90;;;18.63;95.04;95882.88;10498320;28;2294;-80
2021/07/11 13:07:23;;;;;;;;;;;19.80;99.90;;;18.44;99.25;95865.28;10476645;28;2393;-78
2021/07/11 13:12:26;;;;;;;;;;;19.50;99.90;;;18.67;100.00;95860.50;10497063;28;2205;-82
2021/07/11 13:17:28;;;;;;;;;;;19.30;99.90;;;19.02;89.57;95855.75;10495266;28;2546;-81
2021/07/11 13:22:31;;;;;;;;;;;19.50;99.90;;;19.18;91.25;95854.09;10498088;28;2502;-81
2021/07/11 13:27:34;;;;;;;;;;;19.80;99.90;;;19.49;86.26;95848.38;10508205;28;2213;-80
2021/07/11 13:32:36;;;;;;;;;;;20.10;99.90;;;19.95;83.88;95844.75;10504656;28;2306;-81
2021/07/11 13:37:39;;;;;;;;;;;20.60;99.90;;;20.82;82.15;95849.50;10498249;28;2288;-81
2021/07/11 13:42:42;;;;;;;;;;;21.20;99.90;;;20.47;76.46;95832.63;10517513;28;2320;-79
2021/07/11 13:47:45;;;;;;;;;;;21.60;99.90;;;20.08;75.75;95839.34;10484704;28;2305;-81
2021/07/11 13:52:48;;;;;;;;;;;21.40;99.90;;;20.20;76.44;95831.25;10492968;28;2359;-79
2021/07/11 13:57:50;;;;;;;;;;;21.10;99.90;;;20.86;73.50;95833.22;10463600;28;2384;-81
2021/07/11 14:02:53;;;;;;;;;;;21.40;99.90;;;21.15;74.55;95824.06;10469624;28;2619;-79
2021/07/11 14:07:56;;;;;;;;;;;21.60;99.90;;;21.64;68.48;95818.63;10471090;28;2686;-78
2021/07/11 14:12:59;;;;;;;;;;;22.20;99.90;;;21.95;64.67;95818.00;10469412;28;2451;-80
2021/07/11 14:18:02;;;;;;;;;;;22.60;99.90;;;20.74;70.82;95818.41;10455960;28;2582;-80
2021/07/11 14:23:04;;;;;;;;;;;22.30;99.90;;;20.91;70.39;95814.69;10471057;28;2869;-80
2021/07/11 14:28:07;;;;;;;;;;;21.90;99.90;;;21.19;67.07;95811.31;10488269;28;2434;-79
2021/07/11 14:33:10;;;;;;;;;;;21.80;99.90;;;21.36;62.91;95819.31;10498283;28;2563;-80
2021/07/11 14:38:13;;;;;;;;;;;22.00;99.90;;;21.17;60.95;95816.31;10500516;28;2313;-80
2021/07/11 14:43:15;;;;;;;;;;;22.10;99.90;;;20.30;64.28;95809.00;10473660;28;2265;-79
2021/07/11 14:48:20;;;;;;;;;;;21.60;99.90;;;19.67;66.73;95800.03;10473102;28;2789;-83
2021/07/11 14:53:22;;;;;;;;;;;21.00;99.90;;;19.06;70.23;95796.78;10482266;28;2347;-80
2021/07/11 14:58:25;;;;;;;;;;;20.50;99.90;;;19.34;70.60;95799.84;10492082;28;2517;-81
2021/07/11 15:03:28;;;;;;;;;;;20.20;99.90;;;19.90;69.33;95798.56;10485460;28;2464;-80
2021/07/11 15:08:31;;;;;;;;;;;20.80;99.90;;;20.35;67.16;95814.22;10500604;28;2314;-80
2021/07/11 15:13:35;;;;;;;;;;;21.10;99.90;;;20.06;70.65;95817.88;10490686;28;2294;-81
2021/07/11 15:18:38;;;;;;;;;;;21.20;99.90;;;20.69;67.56;95806.91;10480192;28;2385;-80
2021/07/11 15:23:41;;;;;;;;;;;21.60;99.90;;;20.67;68.30;95803.69;10479536;28;2567;-81
2021/07/11 15:28:44;;;;;;;;;;;21.80;99.90;;;20.39;68.13;95801.53;10477030;28;2389;-80
2021/07/11 15:33:46;;;;;;;;;;;21.60;99.90;;;20.42;65.89;95795.41;10496189;28;2482;-80
2021/07/11 15:38:49;;;;;;;;;;;21.60;99.90;;;20.61;64.04;95794.09;10500854;28;2318;-80
2021/07/11 15:43:52;;;;;;;;;;;21.60;99.90;;;20.63;63.82;95791.84;10479786;28;2443;-81
2021/07/11 15:48:54;;;;;;;;;;;21.70;99.90;;;20.78;63.52;95783.00;10474294;28;2261;-80
2021/07/11 15:53:57;;;;;;;;;;;21.80;99.90;;;20.88;63.58;95768.91;10489114;28;2289;-80
2021/07/11 15:59:20;;;;;;;;;;;21.90;99.90;;;20.67;65.06;95754.53;10479221;28;2297;-82
2021/07/11 16:04:23;;;;;;;;;;;21.70;99.90;;;20.63;65.20;95759.09;10493381;28;2827;-80
2021/07/11 16:09:25;;;;;;;;;;;21.60;99.90;;;20.94;63.53;95759.38;10476935;28;2249;-79
2021/07/11 16:14:28;;;;;;;;;;;21.80;99.90;;;21.18;62.67;95752.28;10495808;28;2222;-80
2021/07/11 16:19:31;;;;;;;;;;;21.80;99.90;;;21.43;62.71;95756.63;10482649;28;2479;-79
2021/07/11 16:24:34;;;;;;;;;;;21.90;99.90;;;21.40;62.55;95756.53;10481845;28;2324;-80
2021/07/11 16:29:36;;;;;;;;;;;22.10;99.90;;;21.53;60.98;95753.44;10503836;28;2317;-79
2021/07/11 16:34:39;;;;;;;;;;;22.20;99.90;;;21.50;62.80;95750.59;10489371;28;2218;-82
2021/07/11 16:39:42;;;;;;;;;;;22.30;99.90;;;21.32;62.54;95747.34;10480597;28;2341;-79
2021/07/11 16:44:44;;;;;;;;;;;22.30;99.90;;;20.86;64.01;95756.72;10484051;28;2389;-80
2021/07/11 16:49:47;;;;;;;;;;;22.10;99.90;;;20.37;65.09;95745.69;10488304;28;2241;-81
2021/07/11 16:54:50;;;;;;;;;;;21.70;99.90;;;20.27;65.92;95746.88;10514688;28;2430;-82
2021/07/11 16:59:53;;;;;;;;;;;21.40;99.90;;;20.32;64.15;95748.59;10531108;28;2329;-80
2021/07/11 17:04:55;;;;;;;;;;;21.20;99.90;;;20.06;65.77;95724.31;10521615;28;2136;-79
2021/07/11 17:09:58;;;;;;;;;;;21.10;99.90;;;20.28;65.35;95713.00;10502413;28;2308;-78
2021/07/11 17:15:01;;;;;;;;;;;21.00;99.90;;;20.67;62.92;95727.22;10480418;28;1959;-82
2021/07/11 17:20:04;;;;;;;;;;;21.30;99.90;;;20.41;62.57;95728.25;10502686;28;2693;-79
2021/07/11 17:25:06;;;;;;;;;;;21.40;99.90;;;20.37;62.75;95723.84;10497988;28;2300;-80
2021/07/11 17:30:09;;;;;;;;;;;21.40;99.90;;;19.71;66.24;95724.56;10501299;28;2269;-80
2021/07/11 17:35:12;;;;;;;;;;;21.00;99.90;;;19.60;66.26;95717.94;10500504;28;2457;-80
2021/07/11 17:40:14;;;;;;;;;;;20.80;99.90;;;19.67;66.09;95716.28;10495041;28;2329;-81
2021/07/11 17:45:18;;;;;;;;;;;20.60;99.90;;;19.65;67.29;95720.44;10509229;28;2455;-79
2021/07/11 17:50:21;;;;;;;;;;;20.60;99.90;;;19.39;67.96;95718.69;10512679;28;2265;-81
2021/07/11 17:55:23;;;;;;;;;;;20.50;99.90;;;19.35;68.82;95728.66;10472134;28;2225;-81
2021/07/11 18:00:26;;;;;;;;;;;20.40;99.90;;;19.10;70.97;95729.63;10494885;28;2467;-81
2021/07/11 18:05:29;;;;;;;;;;;20.30;99.90;;;18.95;71.20;95735.59;10494583;28;2289;-80
2021/07/11 18:10:31;;;;;;;;;;;20.10;99.90;;;18.81;71.73;95727.66;10473937;28;2380;-78
2021/07/11 18:15:34;;;;;;;;;;;20.00;99.90;;;18.66;71.86;95733.63;10502573;28;2415;-78
2021/07/11 18:20:37;;;;;;;;;;;19.90;99.90;;;18.55;71.85;95731.25;10507308;28;2371;-81
2021/07/11 18:25:40;;;;;;;;;;;19.70;99.90;;;18.54;72.72;95729.66;10514931;28;2254;-81
2021/07/11 18:30:43;;;;;;;;;;;19.60;99.90;;;18.41;71.78;95735.31;10505178;28;2340;-81
2021/07/11 18:35:45;;;;;;;;;;;19.50;99.90;;;18.37;71.92;95726.97;10481745;28;2305;-79
2021/07/11 18:40:48;;;;;;;;;;;19.50;99.90;;;18.23;73.30;95719.00;10524503;28;2380;-80
2021/07/11 18:45:51;;;;;;;;;;;19.40;99.90;;;18.02;74.85;95731.69;10518867;28;2218;-81
2021/07/11 18:50:54;;;;;;;;;;;19.10;99.90;;;17.87;75.76;95718.56;10520142;28;2293;-79
2021/07/11 18:55:56;;;;;;;;;;;19.00;99.90;;;17.69;77.36;95729.44;10529320;28;2239;-81
2021/07/11 19:00:59;;;;;;;;;;;18.90;99.90;;;17.55;78.00;95736.94;10490926;28;2273;-81
2021/07/11 19:06:02;;;;;;;;;;;18.80;99.90;;;17.53;76.64;95737.25;10508050;28;2295;-81
2021/07/11 19:11:05;;;;;;;;;;;18.70;99.90;;;17.41;78.96;95744.44;10487451;28;2234;-81
2021/07/11 19:16:07;;;;;;;;;;;18.60;99.90;;;17.37;79.08;95738.84;10491456;28;2320;-78
2021/07/11 19:21:10;;;;;;;;;;;18.50;99.90;;;17.23;79.39;95744.41;10479654;28;2365;-82
2021/07/11 19:26:13;;;;;;;;;;;18.40;99.90;;;17.03;80.72;95751.22;10509097;28;2276;-82
2021/07/11 19:31:16;;;;;;;;;;;18.20;99.90;;;16.91;81.05;95748.31;10521642;28;2539;-79
2021/07/11 19:36:18;;;;;;;;;;;18.20;99.90;;;16.80;82.54;95755.16;10529239;28;2428;-82
2021/07/11 19:41:21;;;;;;;;;;;18.00;99.90;;;16.81;81.86;95753.22;10505390;28;2420;-80
2021/07/11 19:46:24;;;;;;;;;;;17.90;99.90;;;16.69;81.86;95757.31;10490929;28;2374;-81
2021/07/11 19:51:27;;;;;;;;;;;17.80;99.90;;;16.53;83.94;95758.81;10488849;28;2375;-81
2021/07/11 19:56:30;;;;;;;;;;;17.70;99.90;;;16.54;83.07;95749.56;10494177;28;2404;-81
2021/07/11 20:01:32;;;;;;;;;;;17.70;99.90;;;16.41;83.91;95753.16;10472479;28;2442;-81
2021/07/11 20:06:36;;;;;;;;;;;17.60;99.90;;;16.26;85.22;95753.56;10499057;28;2395;-81
2021/07/11 20:11:40;;;;;;;;;;;17.50;99.90;;;16.14;86.75;95752.19;10481812;28;1937;-80
2021/07/11 20:16:43;;;;;;;;;;;17.40;99.90;;;16.03;86.50;95753.59;10487233;28;1914;-79
2021/07/11 20:21:46;;;;;;;;;;;17.30;99.90;;;15.95;88.27;95748.88;10506106;28;1549;-80
2021/07/11 20:26:48;;;;;;;;;;;17.10;99.90;;;15.85;89.00;95746.44;10502738;28;1641;-81
2021/07/11 20:31:51;;;;;;;;;;;17.10;99.90;;;15.71;89.79;95745.66;10502480;28;1467;-79
2021/07/11 20:36:54;;;;;;;;;;;17.00;99.90;;;15.67;90.55;95738.16;10497715;28;1914;-81
2021/07/11 20:41:57;;;;;;;;;;;16.90;99.90;;;15.71;91.02;95734.81;10494848;28;1374;-78
2021/07/11 20:47:00;;;;;;;;;;;16.90;99.90;;;15.67;91.26;95740.88;10497662;28;1638;-79
2021/07/11 20:52:03;;;;;;;;;;;16.80;99.90;;;15.64;90.71;95729.81;10489348;28;1370;-80
2021/07/11 20:57:16;;;;;;;;;;;;;;;;;;;;;
2021/07/11 21:02:24;;;;;;;;;;;16.70;99.90;;;15.40;92.37;95730.88;10481182;28;1569;-81
2021/07/11 21:07:28;;;;;;;;;;;16.60;99.90;;;15.40;92.24;95727.38;10500599;28;1758;-81
2021/07/11 21:12:35;;;;;;;;;;;16.60;99.90;;;15.25;94.30;95720.38;10511823;28;1607;-83
2021/07/11 21:17:37;;;;;;;;;;;16.50;99.90;;;15.18;94.64;95708.38;10495126;28;1952;-79
2021/07/11 21:22:40;;;;;;;;;;;16.40;99.90;;;15.08;94.86;95712.91;10486763;28;1359;-81
2021/07/11 21:27:43;;;;;;;;;;;16.40;99.90;;;15.09;95.52;95706.38;10484351;28;1648;-78
2021/07/11 21:32:46;;;;;;;;;;;16.30;99.90;;;14.97;95.73;95706.09;10485501;28;1425;-80
2021/07/11 21:37:49;;;;;;;;;;;16.20;99.90;;;15.09;94.04;95706.38;10488205;28;1913;-81
2021/07/11 21:42:51;;;;;;;;;;;16.20;99.90;;;15.02;94.14;95695.16;10484058;28;1367;-80
2021/07/11 21:47:54;;;;;;;;;;;16.20;99.90;;;14.99;94.52;95689.53;10485699;28;1716;-80
2021/07/11 21:52:57;;;;;;;;;;;16.10;99.90;;;14.97;93.85;95691.75;10464818;28;1595;-81
2021/07/11 21:58:00;;;;;;;;;;;16.10;99.90;;;14.94;94.22;95686.94;10486304;28;1990;-78
2021/07/11 22:03:02;;;;;;;;;;;16.10;99.90;;;14.86;93.66;95685.75;10476009;28;1694;-78
2021/07/11 22:08:05;;;;;;;;;;;16.00;99.90;;;14.71;94.55;95694.19;10497773;28;1373;-79
2021/07/11 22:13:08;;;;;;;;;;;16.00;99.90;;;14.64;95.14;95685.69;10515500;28;1671;-80
2021/07/11 22:18:31;;;;;;;;;;;15.90;99.90;;;14.54;96.01;95690.19;10507745;28;2323;-79
2021/07/11 22:23:33;;;;;;;;;;;15.80;99.90;;;14.55;96.01;95682.88;10480415;28;2376;-80
2021/07/11 22:28:37;;;;;;;;;;;15.80;99.90;;;14.54;96.75;95676.66;10478169;28;2424;-79
2021/07/11 22:33:41;;;;;;;;;;;15.70;99.90;;;14.48;97.68;95669.75;10481850;28;2414;-78
2021/07/11 22:38:43;;;;;;;;;;;15.70;99.90;;;14.34;98.56;95666.22;10477214;28;2412;-78
2021/07/11 22:43:46;;;;;;;;;;;15.60;99.90;;;14.20;98.48;95658.09;10478196;28;2437;-79
2021/07/11 22:48:50;;;;;;;;;;;15.50;99.90;;;14.13;100.00;95660.38;10483577;28;2250;-81
2021/07/11 22:53:52;;;;;;;;;;;15.40;99.90;;;14.17;100.00;95653.28;10484442;28;2356;-80
2021/07/11 22:58:55;;;;;;;;;;;15.30;99.90;;;14.26;100.00;95656.09;10466243;28;2242;-79
2021/07/11 23:03:58;;;;;;;;;;;15.40;99.90;;;14.22;100.00;95649.69;10465774;28;2491;-81
2021/07/11 23:09:00;;;;;;;;;;;15.40;99.90;;;14.09;100.00;95647.75;10468601;28;2341;-77
2021/07/11 23:14:03;;;;;;;;;;;15.30;99.90;;;13.98;100.00;95653.34;10489174;28;2245;-79
2021/07/11 23:19:06;;;;;;;;;;;15.20;99.90;;;13.97;100.00;95653.66;10488777;28;2319;-78